createdAt,value
2017-02-21T00:00:53.041Z,0
2017-02-21T00:01:34.780Z,0
2017-02-21T00:02:16.459Z,0
2017-02-21T00:02:58.125Z,0
2017-02-21T00:03:39.712Z,0
2017-02-21T00:04:21.368Z,0
2017-02-21T00:05:03.102Z,0
2017-02-21T00:05:44.790Z,0
2017-02-21T00:06:26.520Z,0
2017-02-21T00:07:08.006Z,0
2017-02-21T00:07:49.571Z,0
2017-02-21T00:08:31.266Z,0
2017-02-21T00:09:12.880Z,0
2017-02-21T00:09:54.592Z,0
2017-02-21T00:10:36.218Z,0
2017-02-21T00:11:17.954Z,0
2017-02-21T00:11:59.596Z,0
2017-02-21T00:12:41.316Z,0
2017-02-21T00:13:22.960Z,0
2017-02-21T00:14:04.644Z,0
2017-02-21T00:14:46.372Z,0
2017-02-21T00:15:28.112Z,0
2017-02-21T00:18:04.484Z,0
2017-02-21T00:20:40.954Z,0
2017-02-21T00:21:22.687Z,0
2017-02-21T00:22:04.478Z,0
2017-02-21T00:22:46.193Z,0
2017-02-21T00:25:22.723Z,0
2017-02-21T00:26:04.497Z,0
2017-02-21T00:26:46.128Z,0
2017-02-21T00:27:27.848Z,0
2017-02-21T00:28:09.600Z,0
2017-02-21T00:28:51.343Z,0
2017-02-21T00:29:33.106Z,0
2017-02-21T00:32:04.186Z,0
2017-02-21T00:34:19.601Z,0
2017-02-21T00:35:01.230Z,0
2017-02-21T00:35:42.798Z,0
2017-02-21T00:36:24.518Z,0
2017-02-21T00:37:06.178Z,0
2017-02-21T00:37:47.982Z,0
2017-02-21T00:38:29.629Z,0
2017-02-21T00:39:11.373Z,0
2017-02-21T00:39:53.140Z,0
2017-02-21T00:40:34.956Z,0
2017-02-21T00:41:16.719Z,0
2017-02-21T00:41:58.516Z,0
2017-02-21T00:42:40.206Z,0
2017-02-21T00:43:21.915Z,0
2017-02-21T00:44:03.289Z,0
2017-02-21T00:44:45.020Z,0
2017-02-21T00:45:26.816Z,0
2017-02-21T00:46:08.580Z,0
2017-02-21T00:46:50.345Z,0
2017-02-21T00:47:32.009Z,0
2017-02-21T00:48:13.613Z,0
2017-02-21T00:48:55.225Z,0
2017-02-21T00:49:36.948Z,0
2017-02-21T00:50:18.669Z,0
2017-02-21T00:51:00.453Z,0
2017-02-21T00:51:42.188Z,0
2017-02-21T00:52:23.879Z,0
2017-02-21T00:53:05.674Z,0
2017-02-21T00:53:47.416Z,0
2017-02-21T00:54:29.223Z,0
2017-02-21T00:55:10.917Z,0
2017-02-21T00:55:52.636Z,0
2017-02-21T00:56:34.413Z,0
2017-02-21T01:00:54.754Z,0
2017-02-21T01:01:36.271Z,0
2017-02-21T01:02:17.724Z,0
2017-02-21T01:02:59.461Z,0
2017-02-21T01:03:40.775Z,0
2017-02-21T01:04:22.189Z,0
2017-02-21T01:05:03.585Z,0
2017-02-21T01:07:34.338Z,0
2017-02-21T01:08:16.023Z,0
2017-02-21T01:08:57.693Z,0
2017-02-21T01:09:39.435Z,0
2017-02-21T01:10:21.109Z,0
2017-02-21T01:13:02.821Z,0
2017-02-21T01:13:44.665Z,0
2017-02-21T01:14:26.498Z,0
2017-02-21T01:15:08.127Z,0
2017-02-21T01:17:23.648Z,0
2017-02-21T01:18:05.300Z,0
2017-02-21T01:20:47.092Z,0
2017-02-21T01:23:23.583Z,0
2017-02-21T01:24:05.202Z,0
2017-02-21T01:24:46.939Z,0
2017-02-21T01:25:28.533Z,0
2017-02-21T01:26:10.309Z,0
2017-02-21T01:26:52.066Z,0
2017-02-21T01:27:33.732Z,0
2017-02-21T01:28:15.318Z,0
2017-02-21T01:28:57.119Z,0
2017-02-21T01:32:51.550Z,0
2017-02-21T01:35:27.940Z,0
2017-02-21T01:36:09.406Z,0
2017-02-21T01:36:50.921Z,0
2017-02-21T01:37:32.596Z,0
2017-02-21T01:40:14.338Z,0
2017-02-21T01:40:56.052Z,0
2017-02-21T01:43:32.458Z,0
2017-02-21T01:44:14.191Z,0
2017-02-21T01:44:55.913Z,0
2017-02-21T01:45:37.602Z,0
2017-02-21T01:46:19.291Z,0
2017-02-21T01:47:01.031Z,0
2017-02-21T01:47:42.830Z,0
2017-02-21T01:48:24.625Z,0
2017-02-21T01:49:06.379Z,0
2017-02-21T01:49:48.023Z,0
2017-02-21T01:50:29.597Z,0
2017-02-21T01:51:11.249Z,0
2017-02-21T01:51:53.015Z,0
2017-02-21T01:52:34.770Z,0
2017-02-21T01:53:16.430Z,0
2017-02-21T01:53:58.096Z,0
2017-02-21T01:54:39.791Z,0
2017-02-21T01:55:21.403Z,0
2017-02-21T01:57:36.895Z,0
2017-02-21T01:58:18.610Z,0
2017-02-21T01:59:00.288Z,0
2017-02-21T02:01:40.952Z,0
2017-02-21T02:02:21.485Z,0
2017-02-21T02:03:02.020Z,0
2017-02-21T02:03:42.585Z,0
2017-02-21T02:04:23.095Z,0
2017-02-21T02:05:03.637Z,0
2017-02-21T02:05:44.177Z,0
2017-02-21T02:06:24.716Z,0
2017-02-21T02:07:05.322Z,0
2017-02-21T02:07:45.856Z,0
2017-02-21T02:08:26.375Z,0
2017-02-21T02:09:06.908Z,0
2017-02-21T02:09:47.436Z,0
2017-02-21T02:10:27.975Z,0
2017-02-21T02:11:08.515Z,0
2017-02-21T02:11:49.051Z,0
2017-02-21T02:12:29.587Z,0
2017-02-21T02:13:10.128Z,0
2017-02-21T02:13:50.662Z,0
2017-02-21T02:14:31.197Z,0
2017-02-21T02:15:11.730Z,0
2017-02-21T02:15:52.268Z,0
2017-02-21T02:16:32.805Z,0
2017-02-21T02:17:13.349Z,0
2017-02-21T02:17:53.886Z,0
2017-02-21T02:18:34.432Z,0
2017-02-21T02:19:14.965Z,0
2017-02-21T02:19:55.504Z,0
2017-02-21T02:20:36.046Z,0
2017-02-21T02:21:16.583Z,0
2017-02-21T02:21:57.126Z,0
2017-02-21T02:22:37.662Z,0
2017-02-21T02:23:18.203Z,0
2017-02-21T02:23:58.742Z,0
2017-02-21T02:24:39.302Z,0
2017-02-21T02:25:19.821Z,0
2017-02-21T02:26:00.359Z,0
2017-02-21T02:26:40.897Z,0
2017-02-21T02:27:21.435Z,0
2017-02-21T02:28:01.972Z,0
2017-02-21T02:28:42.510Z,0
2017-02-21T02:29:23.046Z,0
2017-02-21T02:30:03.588Z,0
2017-02-21T02:30:44.125Z,0
2017-02-21T02:31:24.655Z,0
2017-02-21T02:32:05.193Z,0
2017-02-21T02:32:45.736Z,0
2017-02-21T02:33:26.271Z,0
2017-02-21T02:34:06.811Z,0
2017-02-21T02:34:47.349Z,0
2017-02-21T02:35:27.886Z,0
2017-02-21T02:36:08.429Z,0
2017-02-21T02:36:48.958Z,0
2017-02-21T02:37:29.498Z,0
2017-02-21T02:38:10.031Z,0
2017-02-21T02:38:50.564Z,0
2017-02-21T02:39:31.100Z,0
2017-02-21T02:40:11.655Z,0
2017-02-21T02:40:52.196Z,0
2017-02-21T02:41:32.733Z,0
2017-02-21T02:42:13.270Z,0
2017-02-21T02:42:53.797Z,0
2017-02-21T02:43:34.335Z,0
2017-02-21T02:44:14.873Z,0
2017-02-21T02:44:55.410Z,0
2017-02-21T02:45:35.949Z,0
2017-02-21T02:46:16.490Z,0
2017-02-21T02:46:57.026Z,0
2017-02-21T02:47:37.561Z,0
2017-02-21T02:48:18.098Z,0
2017-02-21T02:48:58.638Z,0
2017-02-21T02:49:39.173Z,0
2017-02-21T02:50:19.708Z,0
2017-02-21T02:51:00.258Z,0
2017-02-21T02:51:40.798Z,0
2017-02-21T02:52:21.329Z,0
2017-02-21T02:53:01.873Z,0
2017-02-21T02:53:42.411Z,0
2017-02-21T02:54:22.950Z,0
2017-02-21T02:55:03.524Z,0
2017-02-21T02:55:44.062Z,0
2017-02-21T02:56:24.603Z,0
2017-02-21T02:57:05.139Z,0
2017-02-21T02:57:45.680Z,0
2017-02-21T02:58:26.220Z,0
2017-02-21T02:59:06.759Z,0
2017-02-21T02:59:47.301Z,0
2017-02-21T03:00:27.832Z,0
2017-02-21T03:01:08.370Z,0
2017-02-21T03:01:48.908Z,0
2017-02-21T03:02:29.448Z,0
2017-02-21T03:03:09.986Z,0
2017-02-21T03:03:50.522Z,0
2017-02-21T03:04:31.059Z,0
2017-02-21T03:05:11.604Z,0
2017-02-21T03:05:52.144Z,0
2017-02-21T03:06:32.685Z,0
2017-02-21T03:07:13.215Z,0
2017-02-21T03:07:53.752Z,0
2017-02-21T03:08:34.291Z,0
2017-02-21T03:09:14.828Z,0
2017-02-21T03:09:55.368Z,0
2017-02-21T03:10:35.908Z,0
2017-02-21T03:11:16.445Z,0
2017-02-21T03:11:56.981Z,0
2017-02-21T03:12:37.515Z,0
2017-02-21T03:13:18.057Z,0
2017-02-21T03:13:58.595Z,0
2017-02-21T03:14:39.135Z,0
2017-02-21T03:15:19.672Z,0
2017-02-21T03:16:00.211Z,0
2017-02-21T03:16:40.750Z,0
2017-02-21T03:17:21.285Z,0
2017-02-21T03:18:01.823Z,0
2017-02-21T03:18:42.361Z,0
2017-02-21T03:19:22.899Z,0
2017-02-21T03:20:03.437Z,0
2017-02-21T03:20:43.972Z,0
2017-02-21T03:21:24.517Z,0
2017-02-21T03:22:05.052Z,0
2017-02-21T03:22:45.581Z,0
2017-02-21T03:23:26.117Z,0
2017-02-21T03:24:06.654Z,0
2017-02-21T03:24:47.192Z,0
2017-02-21T03:25:27.729Z,0
2017-02-21T03:26:08.273Z,0
2017-02-21T03:26:48.810Z,0
2017-02-21T03:27:29.343Z,0
2017-02-21T03:28:09.958Z,0
2017-02-21T03:28:50.494Z,0
2017-02-21T03:29:31.032Z,0
2017-02-21T03:30:11.575Z,0
2017-02-21T03:30:52.109Z,0
2017-02-21T03:31:32.646Z,0
2017-02-21T03:32:13.184Z,0
2017-02-21T03:32:53.720Z,0
2017-02-21T03:33:34.251Z,0
2017-02-21T03:34:14.791Z,0
2017-02-21T03:34:55.332Z,0
2017-02-21T03:35:35.866Z,0
2017-02-21T03:36:16.401Z,0
2017-02-21T03:36:56.938Z,0
2017-02-21T03:37:37.478Z,0
2017-02-21T03:38:18.019Z,0
2017-02-21T03:38:58.553Z,0
2017-02-21T03:39:39.085Z,0
2017-02-21T03:40:19.623Z,0
2017-02-21T03:41:00.163Z,0
2017-02-21T03:41:40.697Z,0
2017-02-21T03:42:21.235Z,0
2017-02-21T03:43:01.771Z,0
2017-02-21T03:43:42.309Z,0
2017-02-21T03:44:22.846Z,0
2017-02-21T03:45:03.388Z,0
2017-02-21T03:45:43.919Z,0
2017-02-21T03:46:24.447Z,0
2017-02-21T03:47:05.009Z,0
2017-02-21T03:47:45.517Z,0
2017-02-21T03:48:26.063Z,0
2017-02-21T03:49:06.622Z,0
2017-02-21T03:49:47.162Z,0
2017-02-21T03:50:27.693Z,0
2017-02-21T03:51:08.232Z,0
2017-02-21T03:51:48.764Z,0
2017-02-21T03:52:29.300Z,0
2017-02-21T03:53:09.841Z,0
2017-02-21T03:53:50.369Z,0
2017-02-21T03:54:30.918Z,0
2017-02-21T03:55:11.455Z,0
2017-02-21T03:55:53.797Z,0
2017-02-21T03:56:34.335Z,0
2017-02-21T03:57:14.876Z,0
2017-02-21T03:57:55.413Z,0
2017-02-21T03:58:35.953Z,0
2017-02-21T03:59:16.495Z,0
2017-02-21T03:59:57.032Z,0
2017-02-21T04:00:37.566Z,0
2017-02-21T04:01:18.101Z,0
2017-02-21T04:01:58.641Z,0
2017-02-21T04:02:39.184Z,0
2017-02-21T04:03:19.718Z,0
2017-02-21T04:04:00.259Z,0
2017-02-21T04:04:40.799Z,0
2017-02-21T04:05:21.332Z,0
2017-02-21T04:06:01.869Z,0
2017-02-21T04:06:44.299Z,0
2017-02-21T04:07:24.844Z,0
2017-02-21T04:08:05.373Z,0
2017-02-21T04:08:45.909Z,0
2017-02-21T04:09:26.451Z,0
2017-02-21T04:10:06.989Z,0
2017-02-21T04:10:47.525Z,0
2017-02-21T04:11:28.068Z,0
2017-02-21T04:12:08.609Z,0
2017-02-21T04:12:49.148Z,0
2017-02-21T04:13:29.676Z,0
2017-02-21T04:14:10.214Z,0
2017-02-21T04:14:50.755Z,0
2017-02-21T04:15:31.293Z,0
2017-02-21T04:16:11.836Z,0
2017-02-21T04:16:52.374Z,0
2017-02-21T04:17:32.912Z,0
2017-02-21T04:18:13.454Z,0
2017-02-21T04:18:53.984Z,0
2017-02-21T04:19:34.579Z,0
2017-02-21T04:20:15.120Z,0
2017-02-21T04:20:55.665Z,0
2017-02-21T04:21:36.210Z,0
2017-02-21T04:22:16.749Z,0
2017-02-21T04:22:57.313Z,0
2017-02-21T04:23:37.827Z,0
2017-02-21T04:24:18.355Z,0
2017-02-21T04:24:58.895Z,0
2017-02-21T04:25:39.433Z,0
2017-02-21T04:26:19.975Z,0
2017-02-21T04:27:00.512Z,0
2017-02-21T04:27:41.043Z,0
2017-02-21T04:28:21.569Z,0
2017-02-21T04:29:02.102Z,0
2017-02-21T04:29:42.657Z,0
2017-02-21T04:30:23.200Z,0
2017-02-21T04:31:03.737Z,0
2017-02-21T04:31:44.277Z,0
2017-02-21T04:32:24.819Z,0
2017-02-21T04:33:05.367Z,0
2017-02-21T04:33:45.898Z,0
2017-02-21T04:34:26.437Z,0
2017-02-21T04:35:06.968Z,0
2017-02-21T04:35:47.511Z,0
2017-02-21T04:36:28.057Z,0
2017-02-21T04:37:08.593Z,0
2017-02-21T04:37:49.138Z,0
2017-02-21T04:38:29.674Z,0
2017-02-21T04:39:10.235Z,0
2017-02-21T04:39:50.751Z,0
2017-02-21T04:40:31.282Z,0
2017-02-21T04:41:11.810Z,0
2017-02-21T04:41:52.348Z,0
2017-02-21T04:42:32.875Z,0
2017-02-21T04:43:13.433Z,0
2017-02-21T04:43:53.957Z,0
2017-02-21T04:44:34.512Z,0
2017-02-21T04:45:15.033Z,0
2017-02-21T04:45:55.586Z,0
2017-02-21T04:46:36.121Z,0
2017-02-21T04:47:16.669Z,0
2017-02-21T04:47:57.215Z,0
2017-02-21T04:48:37.753Z,0
2017-02-21T04:49:18.295Z,0
2017-02-21T04:49:58.832Z,0
2017-02-21T04:50:39.373Z,0
2017-02-21T04:51:19.899Z,0
2017-02-21T04:52:00.445Z,0
2017-02-21T04:52:40.982Z,0
2017-02-21T04:53:21.526Z,0
2017-02-21T04:54:02.073Z,0
2017-02-21T04:54:42.676Z,0
2017-02-21T04:55:23.218Z,0
2017-02-21T04:56:03.754Z,0
2017-02-21T04:56:44.303Z,0
2017-02-21T04:57:24.839Z,0
2017-02-21T04:58:05.376Z,0
2017-02-21T04:58:45.913Z,0
2017-02-21T04:59:26.452Z,0
2017-02-21T05:00:06.996Z,0
2017-02-21T05:00:47.530Z,0
2017-02-21T05:01:28.065Z,0
2017-02-21T05:02:08.600Z,0
2017-02-21T05:02:49.144Z,0
2017-02-21T05:03:29.683Z,0
2017-02-21T05:04:10.221Z,0
2017-02-21T05:04:50.770Z,0
2017-02-21T05:05:31.315Z,0
2017-02-21T05:06:11.848Z,0
2017-02-21T05:06:52.402Z,0
2017-02-21T05:07:32.954Z,0
2017-02-21T05:08:13.494Z,0
2017-02-21T05:08:54.033Z,0
2017-02-21T05:09:34.574Z,0
2017-02-21T05:10:15.112Z,0
2017-02-21T05:10:55.651Z,0
2017-02-21T05:11:36.188Z,0
2017-02-21T05:12:16.728Z,0
2017-02-21T05:12:57.263Z,0
2017-02-21T05:13:37.804Z,0
2017-02-21T05:14:18.395Z,0
2017-02-21T05:14:58.975Z,0
2017-02-21T05:15:39.515Z,0
2017-02-21T05:16:20.055Z,0
2017-02-21T05:17:00.607Z,0
2017-02-21T05:17:41.135Z,0
2017-02-21T05:18:21.677Z,0
2017-02-21T05:19:02.215Z,0
2017-02-21T05:19:42.743Z,0
2017-02-21T05:20:23.282Z,0
2017-02-21T05:21:03.821Z,0
2017-02-21T05:21:44.361Z,0
2017-02-21T05:22:24.896Z,0
2017-02-21T05:23:05.445Z,0
2017-02-21T05:23:45.977Z,0
2017-02-21T05:24:26.522Z,0
2017-02-21T05:25:07.057Z,0
2017-02-21T05:25:47.592Z,0
2017-02-21T05:26:28.164Z,0
2017-02-21T05:27:08.701Z,0
2017-02-21T05:27:49.239Z,0
2017-02-21T05:28:29.780Z,0
2017-02-21T05:29:10.320Z,0
2017-02-21T05:29:50.860Z,0
2017-02-21T05:30:31.397Z,0
2017-02-21T05:31:11.989Z,0
2017-02-21T05:31:52.622Z,0
2017-02-21T05:32:33.191Z,0
2017-02-21T05:33:13.693Z,0
2017-02-21T05:33:54.235Z,0
2017-02-21T05:34:34.772Z,0
2017-02-21T05:35:15.304Z,0
2017-02-21T05:35:55.840Z,0
2017-02-21T05:36:36.371Z,0
2017-02-21T05:37:16.908Z,0
2017-02-21T05:37:57.443Z,0
2017-02-21T05:38:37.985Z,0
2017-02-21T05:39:18.550Z,0
2017-02-21T05:39:59.089Z,0
2017-02-21T05:40:39.628Z,0
2017-02-21T05:41:20.158Z,0
2017-02-21T05:42:00.696Z,0
2017-02-21T05:42:41.292Z,0
2017-02-21T05:43:21.821Z,0
2017-02-21T05:44:02.359Z,0
2017-02-21T05:44:42.902Z,0
2017-02-21T05:45:23.449Z,0
2017-02-21T05:46:03.988Z,0
2017-02-21T05:46:44.530Z,0
2017-02-21T05:47:25.067Z,0
2017-02-21T05:48:05.617Z,0
2017-02-21T05:48:46.156Z,0
2017-02-21T05:49:26.697Z,0
2017-02-21T05:50:07.237Z,0
2017-02-21T05:50:47.770Z,0
2017-02-21T05:51:28.309Z,0
2017-02-21T05:52:08.845Z,0
2017-02-21T05:52:49.384Z,0
2017-02-21T05:53:29.936Z,0
2017-02-21T05:54:10.472Z,0
2017-02-21T05:54:51.016Z,0
2017-02-21T05:55:31.553Z,0
2017-02-21T05:56:12.088Z,0
2017-02-21T05:56:52.630Z,0
2017-02-21T05:57:33.169Z,0
2017-02-21T05:58:13.712Z,0
2017-02-21T05:58:54.251Z,0
2017-02-21T05:59:34.791Z,0
2017-02-21T06:00:15.322Z,0
2017-02-21T06:00:55.856Z,0
2017-02-21T06:01:36.395Z,0
2017-02-21T06:02:16.926Z,0
2017-02-21T06:02:57.462Z,0
2017-02-21T06:03:38.002Z,0
2017-02-21T06:04:18.551Z,0
2017-02-21T06:04:59.080Z,0
2017-02-21T06:05:39.618Z,0
2017-02-21T06:06:20.164Z,0
2017-02-21T06:07:00.690Z,0
2017-02-21T06:07:41.227Z,0
2017-02-21T06:08:21.769Z,0
2017-02-21T06:09:02.313Z,0
2017-02-21T06:09:42.859Z,0
2017-02-21T06:10:23.391Z,0
2017-02-21T06:11:03.935Z,0
2017-02-21T06:11:44.463Z,0
2017-02-21T06:12:25.002Z,0
2017-02-21T06:13:05.538Z,0
2017-02-21T06:13:46.076Z,0
2017-02-21T06:14:26.617Z,0
2017-02-21T06:15:07.157Z,0
2017-02-21T06:15:47.714Z,0
2017-02-21T06:16:28.259Z,0
2017-02-21T06:17:08.807Z,0
2017-02-21T06:17:49.343Z,0
2017-02-21T06:18:29.886Z,0
2017-02-21T06:19:10.424Z,0
2017-02-21T06:19:50.971Z,0
2017-02-21T06:20:31.511Z,0
2017-02-21T06:21:12.045Z,0
2017-02-21T06:21:52.581Z,0
2017-02-21T06:22:33.118Z,0
2017-02-21T06:23:13.674Z,0
2017-02-21T06:23:54.205Z,0
2017-02-21T06:24:34.740Z,0
2017-02-21T06:25:15.279Z,0
2017-02-21T06:25:55.815Z,0
2017-02-21T06:26:36.351Z,0
2017-02-21T06:27:16.888Z,0
2017-02-21T06:27:57.405Z,0
2017-02-21T06:28:37.950Z,0
2017-02-21T06:29:18.482Z,0
2017-02-21T06:29:59.012Z,0
2017-02-21T06:30:42.099Z,0
2017-02-21T06:31:22.646Z,0
2017-02-21T06:32:03.866Z,0
2017-02-21T06:32:44.418Z,0
2017-02-21T06:35:24.054Z,0
2017-02-21T06:36:04.579Z,0
2017-02-21T06:36:45.115Z,0
2017-02-21T06:37:25.630Z,0
2017-02-21T06:38:06.164Z,0
2017-02-21T06:38:46.758Z,0
2017-02-21T06:39:27.294Z,0
2017-02-21T06:40:07.828Z,0
2017-02-21T06:40:48.367Z,0
2017-02-21T06:41:28.897Z,0
2017-02-21T06:42:09.429Z,0
2017-02-21T06:42:49.963Z,0
2017-02-21T06:43:30.494Z,0
2017-02-21T06:44:11.029Z,0
2017-02-21T06:44:51.559Z,0
2017-02-21T06:45:32.097Z,0
2017-02-21T06:46:12.628Z,5
2017-02-21T06:46:53.163Z,5
2017-02-21T06:47:33.691Z,5
2017-02-21T06:48:14.240Z,5
2017-02-21T06:48:54.777Z,5
2017-02-21T06:49:35.316Z,5
2017-02-21T06:50:15.829Z,5
2017-02-21T06:50:56.364Z,5
2017-02-21T06:51:36.901Z,5
2017-02-21T06:52:17.440Z,5
2017-02-21T06:52:57.987Z,5
2017-02-21T06:53:38.524Z,5
2017-02-21T06:54:19.076Z,5
2017-02-21T06:54:59.583Z,0
2017-02-21T06:55:40.151Z,0
2017-02-21T06:56:20.669Z,0
2017-02-21T06:57:01.195Z,0
2017-02-21T06:57:41.746Z,0
2017-02-21T06:58:22.263Z,0
2017-02-21T06:59:02.780Z,0
2017-02-21T06:59:43.341Z,0
2017-02-21T07:00:23.882Z,0
2017-02-21T07:01:04.430Z,0
2017-02-21T07:01:44.966Z,0
2017-02-21T07:02:25.499Z,0
2017-02-21T07:03:06.036Z,0
2017-02-21T07:03:46.581Z,0
2017-02-21T07:04:27.113Z,0
2017-02-21T07:05:07.651Z,0
2017-02-21T07:05:48.188Z,0
2017-02-21T07:06:28.724Z,0
2017-02-21T07:07:09.253Z,0
2017-02-21T07:07:49.826Z,0
2017-02-21T07:08:30.332Z,0
2017-02-21T07:09:10.881Z,5
2017-02-21T07:09:51.407Z,10
2017-02-21T07:10:31.946Z,10
2017-02-21T07:11:12.483Z,10
2017-02-21T07:11:53.016Z,10
2017-02-21T07:12:33.553Z,10
2017-02-21T07:13:14.103Z,10
2017-02-21T07:13:54.645Z,10
2017-02-21T07:14:35.183Z,5
2017-02-21T07:15:16.681Z,5
2017-02-21T07:15:57.212Z,10
2017-02-21T07:16:37.708Z,15
2017-02-21T07:17:18.243Z,15
2017-02-21T07:17:58.775Z,10
2017-02-21T07:18:39.311Z,15
2017-02-21T07:19:19.842Z,15
2017-02-21T07:20:00.365Z,15
2017-02-21T07:20:40.901Z,15
2017-02-21T07:21:21.439Z,15
2017-02-21T07:22:01.981Z,10
2017-02-21T07:22:42.491Z,10
2017-02-21T07:23:23.018Z,10
2017-02-21T07:24:03.559Z,10
2017-02-21T07:24:44.094Z,10
2017-02-21T07:25:24.630Z,10
2017-02-21T07:26:05.163Z,10
2017-02-21T07:26:45.687Z,10
2017-02-21T07:27:26.233Z,10
2017-02-21T07:28:06.751Z,10
2017-02-21T07:28:47.287Z,15
2017-02-21T07:29:27.835Z,20
2017-02-21T07:30:08.348Z,20
2017-02-21T07:30:48.872Z,20
2017-02-21T07:31:29.426Z,15
2017-02-21T07:32:09.938Z,15
2017-02-21T07:32:50.477Z,20
2017-02-21T07:33:31.017Z,30
2017-02-21T07:34:11.548Z,35
2017-02-21T07:34:52.079Z,30
2017-02-21T07:35:32.616Z,30
2017-02-21T07:36:13.152Z,30
2017-02-21T07:36:53.690Z,30
2017-02-21T07:37:34.224Z,30
2017-02-21T07:38:14.777Z,30
2017-02-21T07:38:55.307Z,30
2017-02-21T07:39:35.841Z,25
2017-02-21T07:40:16.380Z,25
2017-02-21T07:40:56.900Z,30
2017-02-21T07:41:37.443Z,30
2017-02-21T07:42:17.983Z,25
2017-02-21T07:42:58.535Z,25
2017-02-21T07:43:39.056Z,25
2017-02-21T07:44:19.663Z,25
2017-02-21T07:45:00.200Z,20
2017-02-21T07:45:40.729Z,20
2017-02-21T07:46:21.271Z,20
2017-02-21T07:47:01.806Z,20
2017-02-21T07:47:42.339Z,20
2017-02-21T07:48:22.876Z,30
2017-02-21T07:49:03.415Z,25
2017-02-21T07:49:43.954Z,35
2017-02-21T07:50:24.483Z,25
2017-02-21T07:51:05.025Z,20
2017-02-21T07:51:45.550Z,25
2017-02-21T07:52:26.082Z,35
2017-02-21T07:53:06.620Z,40
2017-02-21T07:53:47.156Z,50
2017-02-21T07:54:27.689Z,50
2017-02-21T07:55:08.238Z,55
2017-02-21T07:55:48.758Z,45
2017-02-21T07:56:29.293Z,45
2017-02-21T07:57:09.830Z,35
2017-02-21T07:57:50.369Z,25
2017-02-21T07:58:30.902Z,15
2017-02-21T07:59:11.439Z,20
2017-02-21T07:59:51.968Z,15
2017-02-21T08:00:32.492Z,15
2017-02-21T08:01:13.025Z,25
2017-02-21T08:01:53.555Z,30
2017-02-21T08:02:34.083Z,25
2017-02-21T08:03:14.608Z,30
2017-02-21T08:03:55.146Z,40
2017-02-21T08:04:35.670Z,40
2017-02-21T08:05:16.196Z,35
2017-02-21T08:05:56.743Z,40
2017-02-21T08:06:37.264Z,45
2017-02-21T08:07:17.798Z,40
2017-02-21T08:07:58.337Z,30
2017-02-21T08:08:38.870Z,35
2017-02-21T08:09:19.407Z,40
2017-02-21T08:09:59.947Z,45
2017-02-21T08:10:40.478Z,50
2017-02-21T08:11:21.012Z,60
2017-02-21T08:12:01.547Z,75
2017-02-21T08:12:42.083Z,70
2017-02-21T08:13:22.677Z,75
2017-02-21T08:14:03.205Z,90
2017-02-21T08:14:43.741Z,90
2017-02-21T08:15:24.277Z,85
2017-02-21T08:16:04.910Z,80
2017-02-21T08:16:45.486Z,75
2017-02-21T08:17:26.023Z,60
2017-02-21T08:18:06.556Z,55
2017-02-21T08:18:47.090Z,35
2017-02-21T08:19:27.624Z,20
2017-02-21T08:20:08.161Z,20
2017-02-21T08:20:48.698Z,25
2017-02-21T08:21:29.234Z,35
2017-02-21T08:22:09.770Z,45
2017-02-21T08:22:50.317Z,60
2017-02-21T08:23:30.831Z,85
2017-02-21T08:24:11.365Z,100
2017-02-21T08:24:51.903Z,105
2017-02-21T08:25:32.437Z,100
2017-02-21T08:26:12.982Z,85
2017-02-21T08:26:53.535Z,95
2017-02-21T08:27:34.114Z,120
2017-02-21T08:28:14.646Z,105
2017-02-21T08:28:55.194Z,80
2017-02-21T08:29:35.738Z,70
2017-02-21T08:30:16.313Z,90
2017-02-21T08:30:56.794Z,75
2017-02-21T08:31:37.326Z,80
2017-02-21T08:32:17.864Z,75
2017-02-21T08:32:58.405Z,60
2017-02-21T08:33:38.940Z,55
2017-02-21T08:34:19.480Z,65
2017-02-21T08:35:00.005Z,95
2017-02-21T08:35:40.527Z,105
2017-02-21T08:36:21.066Z,90
2017-02-21T08:37:01.596Z,100
2017-02-21T08:37:42.141Z,105
2017-02-21T08:38:22.683Z,100
2017-02-21T08:39:03.224Z,110
2017-02-21T08:39:43.789Z,125
2017-02-21T08:40:24.324Z,130
2017-02-21T08:41:04.851Z,135
2017-02-21T08:41:45.426Z,115
2017-02-21T08:42:25.947Z,120
2017-02-21T08:43:06.482Z,100
2017-02-21T08:43:47.011Z,85
2017-02-21T08:44:27.547Z,110
2017-02-21T08:45:08.087Z,105
2017-02-21T08:45:48.631Z,90
2017-02-21T08:46:29.226Z,80
2017-02-21T08:47:09.766Z,80
2017-02-21T08:47:50.301Z,80
2017-02-21T08:48:30.841Z,120
2017-02-21T08:49:11.384Z,130
2017-02-21T08:49:51.910Z,130
2017-02-21T08:50:32.444Z,100
2017-02-21T08:51:12.981Z,85
2017-02-21T08:51:53.508Z,100
2017-02-21T08:52:34.050Z,95
2017-02-21T08:53:14.586Z,100
2017-02-21T08:53:55.122Z,95
2017-02-21T08:54:35.657Z,120
2017-02-21T08:55:16.191Z,130
2017-02-21T08:55:56.727Z,120
2017-02-21T08:56:37.243Z,120
2017-02-21T08:57:17.780Z,110
2017-02-21T08:57:58.306Z,85
2017-02-21T08:58:38.843Z,75
2017-02-21T08:59:19.379Z,75
2017-02-21T08:59:59.911Z,80
2017-02-21T09:00:40.497Z,90
2017-02-21T09:01:21.034Z,85
2017-02-21T09:02:01.570Z,65
2017-02-21T09:02:42.112Z,75
2017-02-21T09:03:22.649Z,85
2017-02-21T09:04:03.181Z,105
2017-02-21T09:04:43.712Z,105
2017-02-21T09:05:24.251Z,90
2017-02-21T09:06:04.790Z,85
2017-02-21T09:06:45.319Z,95
2017-02-21T09:07:25.862Z,115
2017-02-21T09:08:06.400Z,125
2017-02-21T09:08:46.945Z,135
2017-02-21T09:09:27.476Z,130
2017-02-21T09:10:08.009Z,130
2017-02-21T09:10:48.547Z,140
2017-02-21T09:11:29.075Z,130
2017-02-21T09:12:09.622Z,115
2017-02-21T09:12:50.158Z,120
2017-02-21T09:13:30.703Z,120
2017-02-21T09:14:11.232Z,130
2017-02-21T09:14:51.753Z,135
2017-02-21T09:15:32.292Z,125
2017-02-21T09:16:12.827Z,120
2017-02-21T09:16:53.364Z,120
2017-02-21T09:17:33.904Z,130
2017-02-21T09:18:14.441Z,125
2017-02-21T09:18:54.968Z,125
2017-02-21T09:19:35.505Z,125
2017-02-21T09:20:16.039Z,125
2017-02-21T09:20:56.576Z,120
2017-02-21T09:21:37.118Z,105
2017-02-21T09:22:17.661Z,95
2017-02-21T09:22:58.197Z,100
2017-02-21T09:23:38.737Z,80
2017-02-21T09:24:19.263Z,60
2017-02-21T09:24:59.806Z,65
2017-02-21T09:25:40.328Z,95
2017-02-21T09:26:20.874Z,90
2017-02-21T09:27:01.418Z,105
2017-02-21T09:27:41.952Z,115
2017-02-21T09:28:22.477Z,110
2017-02-21T09:29:03.012Z,120
2017-02-21T09:29:43.541Z,140
2017-02-21T09:30:24.084Z,155
2017-02-21T09:31:04.621Z,150
2017-02-21T09:31:45.165Z,135
2017-02-21T09:32:25.715Z,145
2017-02-21T09:33:06.241Z,155
2017-02-21T09:33:46.763Z,145
2017-02-21T09:34:27.292Z,130
2017-02-21T09:35:07.829Z,125
2017-02-21T09:35:48.356Z,120
2017-02-21T09:36:28.889Z,135
2017-02-21T09:37:09.424Z,155
2017-02-21T09:37:49.958Z,165
2017-02-21T09:38:30.504Z,155
2017-02-21T09:39:11.041Z,170
2017-02-21T09:39:51.581Z,165
2017-02-21T09:40:32.122Z,170
2017-02-21T09:41:12.651Z,170
2017-02-21T09:41:53.189Z,175
2017-02-21T09:42:33.727Z,180
2017-02-21T09:43:14.291Z,180
2017-02-21T09:43:54.829Z,135
2017-02-21T09:44:35.365Z,115
2017-02-21T09:45:15.907Z,160
2017-02-21T09:45:56.448Z,195
2017-02-21T09:46:36.998Z,175
2017-02-21T09:47:17.535Z,165
2017-02-21T09:47:58.075Z,175
2017-02-21T09:48:38.596Z,135
2017-02-21T09:49:19.132Z,170
2017-02-21T09:49:59.652Z,160
2017-02-21T09:50:40.192Z,165
2017-02-21T09:51:20.753Z,150
2017-02-21T09:52:01.245Z,145
2017-02-21T09:52:41.786Z,150
2017-02-21T09:53:22.321Z,150
2017-02-21T09:54:02.867Z,120
2017-02-21T09:54:43.406Z,150
2017-02-21T09:55:23.952Z,140
2017-02-21T09:56:04.485Z,145
2017-02-21T09:56:45.035Z,145
2017-02-21T09:57:25.570Z,140
2017-02-21T09:58:06.104Z,120
2017-02-21T09:58:46.633Z,115
2017-02-21T09:59:27.161Z,130
2017-02-21T10:00:07.718Z,125
2017-02-21T10:00:48.252Z,105
2017-02-21T10:01:28.836Z,115
2017-02-21T10:02:09.372Z,125
2017-02-21T10:02:49.910Z,120
2017-02-21T10:03:30.466Z,115
2017-02-21T10:04:11.012Z,125
2017-02-21T10:04:51.541Z,130
2017-02-21T10:05:32.075Z,135
2017-02-21T10:06:12.610Z,90
2017-02-21T10:06:53.148Z,135
2017-02-21T10:07:33.691Z,140
2017-02-21T10:08:14.236Z,135
2017-02-21T10:08:54.770Z,160
2017-02-21T10:09:35.304Z,155
2017-02-21T10:10:15.845Z,145
2017-02-21T10:10:56.381Z,130
2017-02-21T10:11:36.912Z,95
2017-02-21T10:12:17.433Z,90
2017-02-21T10:12:57.973Z,100
2017-02-21T10:13:38.508Z,100
2017-02-21T10:14:19.052Z,105
2017-02-21T10:14:59.579Z,105
2017-02-21T10:15:40.106Z,110
2017-02-21T10:16:20.641Z,105
2017-02-21T10:17:01.180Z,95
2017-02-21T10:17:41.687Z,115
2017-02-21T10:18:22.219Z,120
2017-02-21T10:19:02.757Z,125
2017-02-21T10:19:43.287Z,120
2017-02-21T10:20:23.851Z,105
2017-02-21T10:21:04.378Z,95
2017-02-21T10:21:44.914Z,95
2017-02-21T10:22:25.460Z,115
2017-02-21T10:23:05.983Z,115
2017-02-21T10:23:46.519Z,130
2017-02-21T10:24:27.057Z,140
2017-02-21T10:25:07.591Z,135
2017-02-21T10:25:48.128Z,135
2017-02-21T10:26:28.679Z,105
2017-02-21T10:27:09.221Z,115
2017-02-21T10:27:49.768Z,135
2017-02-21T10:28:30.282Z,130